sensor_id;sensor_type;location;lat;lon;timestamp;pressure;altitude;pressure_sealevel;temperature;humidity
47220;BME280;32961;51.936;4.788;2023-06-22T00:00:33;101950.09;;;19.41;81.06
47220;BME280;32961;51.936;4.788;2023-06-22T00:03:01;101951.69;;;19.44;80.72
47220;BME280;32961;51.936;4.788;2023-06-22T00:05:29;101947.88;;;19.45;80.75
47220;BME280;32961;51.936;4.788;2023-06-22T00:07:58;101949.25;;;19.40;81.63
47220;BME280;32961;51.936;4.788;2023-06-22T00:10:25;101944.59;;;19.41;81.68
47220;BME280;32961;51.936;4.788;2023-06-22T00:12:54;101942.91;;;19.40;81.89
47220;BME280;32961;51.936;4.788;2023-06-22T00:15:22;101936.19;;;19.34;82.49
47220;BME280;32961;51.936;4.788;2023-06-22T00:17:50;101926.91;;;19.27;83.25
47220;BME280;32961;51.936;4.788;2023-06-22T00:20:18;101932.28;;;19.20;84.07
47220;BME280;32961;51.936;4.788;2023-06-22T00:22:46;101931.75;;;19.17;83.78
47220;BME280;32961;51.936;4.788;2023-06-22T00:25:15;101925.56;;;19.06;85.48
47220;BME280;32961;51.936;4.788;2023-06-22T00:27:43;101924.03;;;18.96;86.37
47220;BME280;32961;51.936;4.788;2023-06-22T00:30:12;101921.44;;;18.94;87.01
47220;BME280;32961;51.936;4.788;2023-06-22T00:32:40;101930.19;;;18.89;87.08
47220;BME280;32961;51.936;4.788;2023-06-22T00:35:08;101926.28;;;18.92;86.91
47220;BME280;32961;51.936;4.788;2023-06-22T00:37:36;101921.94;;;18.89;87.06
47220;BME280;32961;51.936;4.788;2023-06-22T00:40:06;101922.81;;;18.90;86.53
47220;BME280;32961;51.936;4.788;2023-06-22T00:42:36;101922.66;;;18.91;86.34
47220;BME280;32961;51.936;4.788;2023-06-22T00:45:05;101915.41;;;18.90;85.92
47220;BME280;32961;51.936;4.788;2023-06-22T00:47:34;101920.25;;;18.97;85.31
47220;BME280;32961;51.936;4.788;2023-06-22T00:50:06;101917.31;;;18.90;86.33
47220;BME280;32961;51.936;4.788;2023-06-22T00:52:35;101917.63;;;18.87;86.09
47220;BME280;32961;51.936;4.788;2023-06-22T00:55:04;101919.03;;;18.83;86.61
47220;BME280;32961;51.936;4.788;2023-06-22T00:57:33;101917.31;;;18.82;86.77
47220;BME280;32961;51.936;4.788;2023-06-22T01:00:06;101919.03;;;18.83;86.23
47220;BME280;32961;51.936;4.788;2023-06-22T01:02:46;101913.84;;;18.80;86.87
47220;BME280;32961;51.936;4.788;2023-06-22T01:05:19;101913.19;;;18.77;86.58
47220;BME280;32961;51.936;4.788;2023-06-22T01:08:04;101914.22;;;18.76;86.68
47220;BME280;32961;51.936;4.788;2023-06-22T01:10:40;101899.94;;;18.73;86.62
47220;BME280;32961;51.936;4.788;2023-06-22T01:13:16;101897.50;;;18.70;87.09
47220;BME280;32961;51.936;4.788;2023-06-22T01:15:51;101900.81;;;18.65;87.06
47220;BME280;32961;51.936;4.788;2023-06-22T01:18:21;101903.03;;;18.62;87.25
47220;BME280;32961;51.936;4.788;2023-06-22T01:20:54;101908.88;;;18.58;87.55
47220;BME280;32961;51.936;4.788;2023-06-22T01:23:29;101910.41;;;18.61;87.54
47220;BME280;32961;51.936;4.788;2023-06-22T01:26:05;101911.63;;;18.67;87.59
47220;BME280;32961;51.936;4.788;2023-06-22T01:28:39;101915.94;;;18.69;87.87
47220;BME280;32961;51.936;4.788;2023-06-22T01:31:10;101908.00;;;18.66;87.28
47220;BME280;32961;51.936;4.788;2023-06-22T01:33:43;101905.28;;;18.58;88.27
47220;BME280;32961;51.936;4.788;2023-06-22T01:36:14;101897.69;;;18.43;89.49
47220;BME280;32961;51.936;4.788;2023-06-22T01:38:43;101897.34;;;18.38;89.88
47220;BME280;32961;51.936;4.788;2023-06-22T01:41:12;101896.31;;;18.39;89.17
47220;BME280;32961;51.936;4.788;2023-06-22T01:43:42;101899.25;;;18.46;89.27
47220;BME280;32961;51.936;4.788;2023-06-22T01:46:11;101905.09;;;18.43;89.57
47220;BME280;32961;51.936;4.788;2023-06-22T01:48:39;101903.38;;;18.42;89.60
47220;BME280;32961;51.936;4.788;2023-06-22T01:51:08;101901.13;;;18.37;89.89
47220;BME280;32961;51.936;4.788;2023-06-22T01:53:36;101899.41;;;18.36;89.91
47220;BME280;32961;51.936;4.788;2023-06-22T01:56:04;101906.63;;;18.37;89.97
47220;BME280;32961;51.936;4.788;2023-06-22T01:58:32;101901.13;;;18.37;89.56
47220;BME280;32961;51.936;4.788;2023-06-22T02:01:11;101899.75;;;18.25;91.19
47220;BME280;32961;51.936;4.788;2023-06-22T02:03:42;101901.44;;;18.18;91.89
47220;BME280;32961;51.936;4.788;2023-06-22T02:06:16;101912.63;;;18.16;91.87
47220;BME280;32961;51.936;4.788;2023-06-22T02:08:48;101906.25;;;18.16;91.42
47220;BME280;32961;51.936;4.788;2023-06-22T02:11:18;101904.91;;;18.20;91.71
47220;BME280;32961;51.936;4.788;2023-06-22T02:13:48;101905.03;;;18.18;91.30
47220;BME280;32961;51.936;4.788;2023-06-22T02:16:19;101890.63;;;18.16;91.48
47220;BME280;32961;51.936;4.788;2023-06-22T02:18:47;101887.88;;;18.16;91.26
47220;BME280;32961;51.936;4.788;2023-06-22T02:21:17;101885.13;;;18.16;91.14
47220;BME280;32961;51.936;4.788;2023-06-22T02:23:45;101878.75;;;18.16;91.12
47220;BME280;32961;51.936;4.788;2023-06-22T02:26:15;101880.97;;;18.12;91.42
47220;BME280;32961;51.936;4.788;2023-06-22T02:28:44;101887.66;;;18.09;91.35
47220;BME280;32961;51.936;4.788;2023-06-22T02:31:12;101876.84;;;18.08;91.59
47220;BME280;32961;51.936;4.788;2023-06-22T02:33:41;101880.44;;;18.08;90.67
47220;BME280;32961;51.936;4.788;2023-06-22T02:36:12;101883.72;;;18.04;91.06
47220;BME280;32961;51.936;4.788;2023-06-22T02:38:40;101880.28;;;18.02;91.86
47220;BME280;32961;51.936;4.788;2023-06-22T02:41:15;101885.41;;;18.05;92.24
47220;BME280;32961;51.936;4.788;2023-06-22T02:43:44;101891.31;;;18.10;92.12
47220;BME280;32961;51.936;4.788;2023-06-22T02:46:13;101882.00;;;18.11;91.50
47220;BME280;32961;51.936;4.788;2023-06-22T02:48:42;101897.31;;;18.14;91.55
47220;BME280;32961;51.936;4.788;2023-06-22T02:51:12;101895.25;;;18.16;91.17
47220;BME280;32961;51.936;4.788;2023-06-22T02:53:41;101895.59;;;18.12;91.03
47220;BME280;32961;51.936;4.788;2023-06-22T02:56:11;101900.22;;;18.12;91.40
47220;BME280;32961;51.936;4.788;2023-06-22T02:58:39;101900.22;;;18.12;91.27
47220;BME280;32961;51.936;4.788;2023-06-22T03:01:07;101894.19;;;18.08;91.49
47220;BME280;32961;51.936;4.788;2023-06-22T03:03:36;101899.56;;;18.10;91.46
47220;BME280;32961;51.936;4.788;2023-06-22T03:06:06;101901.78;;;18.06;91.62
47220;BME280;32961;51.936;4.788;2023-06-22T03:08:34;101901.25;;;18.03;92.52
47220;BME280;32961;51.936;4.788;2023-06-22T03:11:01;101892.78;;;17.96;92.49
47220;BME280;32961;51.936;4.788;2023-06-22T03:13:29;101893.25;;;17.91;93.72
47220;BME280;32961;51.936;4.788;2023-06-22T03:15:57;101881.75;;;17.79;95.04
47220;BME280;32961;51.936;4.788;2023-06-22T03:18:25;101873.28;;;17.73;95.32
47220;BME280;32961;51.936;4.788;2023-06-22T03:20:52;101871.72;;;17.70;95.34
47220;BME280;32961;51.936;4.788;2023-06-22T03:23:22;101856.13;;;17.71;94.61
47220;BME280;32961;51.936;4.788;2023-06-22T03:25:49;101854.72;;;17.67;95.64
47220;BME280;32961;51.936;4.788;2023-06-22T03:28:17;101858.34;;;17.67;94.91
47220;BME280;32961;51.936;4.788;2023-06-22T03:30:45;101856.94;;;17.63;95.37
47220;BME280;32961;51.936;4.788;2023-06-22T03:33:13;101862.06;;;17.58;96.25
47220;BME280;32961;51.936;4.788;2023-06-22T03:35:41;101856.56;;;17.58;96.43
47220;BME280;32961;51.936;4.788;2023-06-22T03:38:08;101862.25;;;17.56;96.50
47220;BME280;32961;51.936;4.788;2023-06-22T03:40:38;101863.25;;;17.55;96.60
47220;BME280;32961;51.936;4.788;2023-06-22T03:43:05;101861.38;;;17.56;96.45
47220;BME280;32961;51.936;4.788;2023-06-22T03:45:33;101854.31;;;17.53;96.62
47220;BME280;32961;51.936;4.788;2023-06-22T03:48:01;101854.19;;;17.55;96.70
47220;BME280;32961;51.936;4.788;2023-06-22T03:50:29;101854.00;;;17.56;96.86
47220;BME280;32961;51.936;4.788;2023-06-22T03:52:57;101849.72;;;17.62;95.85
47220;BME280;32961;51.936;4.788;2023-06-22T03:55:25;101852.09;;;17.48;96.92
47220;BME280;32961;51.936;4.788;2023-06-22T03:57:54;101849.66;;;17.45;97.06
47220;BME280;32961;51.936;4.788;2023-06-22T04:00:23;101844.00;;;17.47;97.70
47220;BME280;32961;51.936;4.788;2023-06-22T04:02:51;101847.63;;;17.47;97.23
47220;BME280;32961;51.936;4.788;2023-06-22T04:05:19;101838.13;;;17.42;97.40
47220;BME280;32961;51.936;4.788;2023-06-22T04:07:47;101831.41;;;17.36;97.52
47220;BME280;32961;51.936;4.788;2023-06-22T04:10:15;101834.50;;;17.33;98.49
47220;BME280;32961;51.936;4.788;2023-06-22T04:12:44;101827.28;;;17.32;98.66
47220;BME280;32961;51.936;4.788;2023-06-22T04:15:13;101824.38;;;17.33;98.78
47220;BME280;32961;51.936;4.788;2023-06-22T04:17:41;101834.50;;;17.33;98.89
47220;BME280;32961;51.936;4.788;2023-06-22T04:20:09;101832.47;;;17.35;98.57
47220;BME280;32961;51.936;4.788;2023-06-22T04:22:37;101832.06;;;17.30;99.34
47220;BME280;32961;51.936;4.788;2023-06-22T04:25:05;101831.06;;;17.31;99.31
47220;BME280;32961;51.936;4.788;2023-06-22T04:27:34;101842.41;;;17.36;99.65
47220;BME280;32961;51.936;4.788;2023-06-22T04:30:04;101842.94;;;17.40;99.51
47220;BME280;32961;51.936;4.788;2023-06-22T04:32:35;101845.53;;;17.41;99.95
47220;BME280;32961;51.936;4.788;2023-06-22T04:35:04;101846.75;;;17.47;99.91
47220;BME280;32961;51.936;4.788;2023-06-22T04:37:33;101849.50;;;17.47;100.00
47220;BME280;32961;51.936;4.788;2023-06-22T04:40:00;101848.16;;;17.51;100.00
47220;BME280;32961;51.936;4.788;2023-06-22T04:42:30;101849.69;;;17.54;100.00
47220;BME280;32961;51.936;4.788;2023-06-22T04:44:58;101853.81;;;17.58;100.00
47220;BME280;32961;51.936;4.788;2023-06-22T04:47:28;101865.53;;;17.60;100.00
47220;BME280;32961;51.936;4.788;2023-06-22T04:49:57;101856.97;;;17.71;100.00
47220;BME280;32961;51.936;4.788;2023-06-22T04:52:25;101860.41;;;17.73;100.00
47220;BME280;32961;51.936;4.788;2023-06-22T04:54:52;101860.06;;;17.76;100.00
47220;BME280;32961;51.936;4.788;2023-06-22T04:57:22;101858.72;;;17.80;100.00
47220;BME280;32961;51.936;4.788;2023-06-22T04:59:59;101857.53;;;17.83;100.00
47220;BME280;32961;51.936;4.788;2023-06-22T05:02:37;101861.81;;;17.86;100.00
47220;BME280;32961;51.936;4.788;2023-06-22T05:05:08;101852.03;;;17.91;100.00
47220;BME280;32961;51.936;4.788;2023-06-22T05:07:41;101851.56;;;17.96;100.00
47220;BME280;32961;51.936;4.788;2023-06-22T05:10:10;101860.66;;;18.05;100.00
47220;BME280;32961;51.936;4.788;2023-06-22T05:12:39;101856.56;;;18.09;100.00
47220;BME280;32961;51.936;4.788;2023-06-22T05:15:08;101852.81;;;18.10;100.00
47220;BME280;32961;51.936;4.788;2023-06-22T05:17:37;101852.25;;;18.15;100.00
47220;BME280;32961;51.936;4.788;2023-06-22T05:20:12;101857.97;;;18.21;100.00
47220;BME280;32961;51.936;4.788;2023-06-22T05:22:40;101862.78;;;18.27;100.00
47220;BME280;32961;51.936;4.788;2023-06-22T05:25:10;101857.09;;;18.29;100.00
47220;BME280;32961;51.936;4.788;2023-06-22T05:27:38;101861.06;;;18.35;100.00
47220;BME280;32961;51.936;4.788;2023-06-22T05:30:07;101853.34;;;18.38;100.00
47220;BME280;32961;51.936;4.788;2023-06-22T05:32:36;101860.03;;;18.44;99.63
47220;BME280;32961;51.936;4.788;2023-06-22T05:35:04;101856.06;;;18.55;99.39
47220;BME280;32961;51.936;4.788;2023-06-22T05:37:33;101860.19;;;18.67;99.26
47220;BME280;32961;51.936;4.788;2023-06-22T05:40:01;101857.09;;;18.79;98.45
47220;BME280;32961;51.936;4.788;2023-06-22T05:42:30;101861.72;;;18.78;97.47
47220;BME280;32961;51.936;4.788;2023-06-22T05:44:58;101861.53;;;18.80;97.32
47220;BME280;32961;51.936;4.788;2023-06-22T05:47:26;101861.22;;;18.83;97.03
47220;BME280;32961;51.936;4.788;2023-06-22T05:49:54;101854.31;;;18.87;96.97
47220;BME280;32961;51.936;4.788;2023-06-22T05:52:22;101850.72;;;18.95;97.35
47220;BME280;32961;51.936;4.788;2023-06-22T05:54:51;101848.81;;;19.03;96.53
47220;BME280;32961;51.936;4.788;2023-06-22T05:57:19;101846.72;;;19.05;96.28
47220;BME280;32961;51.936;4.788;2023-06-22T05:59:48;101849.31;;;19.07;96.70
47220;BME280;32961;51.936;4.788;2023-06-22T06:02:16;101844.47;;;19.17;96.82
47220;BME280;32961;51.936;4.788;2023-06-22T06:04:44;101844.44;;;19.26;96.26
47220;BME280;32961;51.936;4.788;2023-06-22T06:07:11;101839.41;;;19.37;96.05
47220;BME280;32961;51.936;4.788;2023-06-22T06:09:39;101846.06;;;19.43;95.97
47220;BME280;32961;51.936;4.788;2023-06-22T06:12:09;101845.03;;;19.52;95.78
47220;BME280;32961;51.936;4.788;2023-06-22T06:14:37;101846.25;;;19.50;95.24
47220;BME280;32961;51.936;4.788;2023-06-22T06:17:04;101839.44;;;19.61;95.36
47220;BME280;32961;51.936;4.788;2023-06-22T06:19:32;101839.94;;;19.64;94.72
47220;BME280;32961;51.936;4.788;2023-06-22T06:22:00;101845.59;;;19.71;93.99
47220;BME280;32961;51.936;4.788;2023-06-22T06:24:28;101837.84;;;19.75;92.22
47220;BME280;32961;51.936;4.788;2023-06-22T06:26:56;101847.09;;;19.82;90.72
47220;BME280;32961;51.936;4.788;2023-06-22T06:29:25;101838.78;;;19.90;89.82
47220;BME280;32961;51.936;4.788;2023-06-22T06:31:53;101834.09;;;19.99;90.00
47220;BME280;32961;51.936;4.788;2023-06-22T06:34:21;101830.41;;;20.07;90.17
47220;BME280;32961;51.936;4.788;2023-06-22T06:36:48;101827.13;;;20.11;88.44
47220;BME280;32961;51.936;4.788;2023-06-22T06:39:16;101826.88;;;20.21;88.37
47220;BME280;32961;51.936;4.788;2023-06-22T06:41:44;101824.34;;;20.34;88.06
47220;BME280;32961;51.936;4.788;2023-06-22T06:44:12;101824.84;;;20.38;87.65
47220;BME280;32961;51.936;4.788;2023-06-22T06:46:41;101816.28;;;20.48;87.22
47220;BME280;32961;51.936;4.788;2023-06-22T06:49:09;101813.56;;;20.63;86.76
47220;BME280;32961;51.936;4.788;2023-06-22T06:51:37;101814.59;;;20.62;86.02
47220;BME280;32961;51.936;4.788;2023-06-22T06:54:05;101818.03;;;20.64;86.39
47220;BME280;32961;51.936;4.788;2023-06-22T06:56:33;101814.53;;;20.70;86.10
47220;BME280;32961;51.936;4.788;2023-06-22T06:59:00;101817.03;;;20.80;85.57
47220;BME280;32961;51.936;4.788;2023-06-22T07:01:28;101806.63;;;20.82;83.52
47220;BME280;32961;51.936;4.788;2023-06-22T07:04:01;101811.41;;;20.88;83.98
47220;BME280;32961;51.936;4.788;2023-06-22T07:06:29;101817.25;;;20.93;84.26
47220;BME280;32961;51.936;4.788;2023-06-22T07:08:58;101806.38;;;21.07;84.07
47220;BME280;32961;51.936;4.788;2023-06-22T07:11:27;101801.50;;;21.24;81.49
47220;BME280;32961;51.936;4.788;2023-06-22T07:13:55;101804.09;;;21.25;79.90
47220;BME280;32961;51.936;4.788;2023-06-22T07:16:23;101801.34;;;21.47;80.43
47220;BME280;32961;51.936;4.788;2023-06-22T07:18:52;101805.09;;;21.69;77.49
47220;BME280;32961;51.936;4.788;2023-06-22T07:21:21;101803.78;;;21.87;75.47
47220;BME280;32961;51.936;4.788;2023-06-22T07:23:49;101795.63;;;22.00;73.27
47220;BME280;32961;51.936;4.788;2023-06-22T07:26:17;101800.69;;;22.18;71.79
47220;BME280;32961;51.936;4.788;2023-06-22T07:28:45;101799.44;;;22.21;71.12
47220;BME280;32961;51.936;4.788;2023-06-22T07:31:12;101800.78;;;22.32;70.97
47220;BME280;32961;51.936;4.788;2023-06-22T07:33:40;101803.44;;;22.40;71.00
47220;BME280;32961;51.936;4.788;2023-06-22T07:36:08;101798.44;;;22.50;71.34
47220;BME280;32961;51.936;4.788;2023-06-22T07:38:37;101802.31;;;22.34;70.79
47220;BME280;32961;51.936;4.788;2023-06-22T07:41:05;101799.72;;;22.33;71.74
47220;BME280;32961;51.936;4.788;2023-06-22T07:43:33;101798.16;;;22.45;71.64
47220;BME280;32961;51.936;4.788;2023-06-22T07:46:03;101792.03;;;22.50;71.84
47220;BME280;32961;51.936;4.788;2023-06-22T07:48:31;101786.69;;;22.48;72.97
47220;BME280;32961;51.936;4.788;2023-06-22T07:50:59;101791.28;;;22.63;72.66
47220;BME280;32961;51.936;4.788;2023-06-22T07:53:27;101789.47;;;22.76;71.76
47220;BME280;32961;51.936;4.788;2023-06-22T07:55:56;101780.69;;;22.73;72.60
47220;BME280;32961;51.936;4.788;2023-06-22T07:58:24;101781.84;;;22.85;72.89
47220;BME280;32961;51.936;4.788;2023-06-22T08:00:52;101775.53;;;22.98;73.72
47220;BME280;32961;51.936;4.788;2023-06-22T08:03:20;101767.22;;;23.05;73.66
47220;BME280;32961;51.936;4.788;2023-06-22T08:05:48;101763.50;;;23.19;73.94
47220;BME280;32961;51.936;4.788;2023-06-22T08:08:16;101762.59;;;23.12;74.92
47220;BME280;32961;51.936;4.788;2023-06-22T08:10:44;101755.03;;;23.28;74.83
47220;BME280;32961;51.936;4.788;2023-06-22T08:26:32;101741.28;;;23.68;68.25
47220;BME280;32961;51.936;4.788;2023-06-22T08:29:03;101739.97;;;23.64;68.88
47220;BME280;32961;51.936;4.788;2023-06-22T08:31:31;101725.47;;;23.75;68.32
47220;BME280;32961;51.936;4.788;2023-06-22T08:34:01;101725.00;;;23.51;67.80
47220;BME280;32961;51.936;4.788;2023-06-22T08:36:28;101728.66;;;23.52;67.58
47220;BME280;32961;51.936;4.788;2023-06-22T08:38:59;101728.88;;;23.57;67.41
47220;BME280;32961;51.936;4.788;2023-06-22T08:41:29;101718.84;;;23.56;66.55
47220;BME280;32961;51.936;4.788;2023-06-22T08:43:58;101718.84;;;23.63;67.16
47220;BME280;32961;51.936;4.788;2023-06-22T08:46:26;101721.19;;;23.66;67.07
47220;BME280;32961;51.936;4.788;2023-06-22T08:48:59;101725.69;;;23.74;67.63
47220;BME280;32961;51.936;4.788;2023-06-22T08:51:27;101732.31;;;23.79;68.49
47220;BME280;32961;51.936;4.788;2023-06-22T08:53:56;101730.41;;;23.73;68.59
47220;BME280;32961;51.936;4.788;2023-06-22T08:56:24;101734.88;;;23.74;68.60
47220;BME280;32961;51.936;4.788;2023-06-22T08:58:52;101736.38;;;23.77;69.04
47220;BME280;32961;51.936;4.788;2023-06-22T09:01:24;101721.84;;;23.75;69.75
47220;BME280;32961;51.936;4.788;2023-06-22T09:03:52;101726.13;;;23.77;67.53
47220;BME280;32961;51.936;4.788;2023-06-22T09:06:24;101722.94;;;23.80;67.52
47220;BME280;32961;51.936;4.788;2023-06-22T09:08:52;101731.03;;;23.88;67.73
47220;BME280;32961;51.936;4.788;2023-06-22T09:11:20;101725.72;;;23.87;67.65
47220;BME280;32961;51.936;4.788;2023-06-22T09:13:48;101725.47;;;23.88;67.65
47220;BME280;32961;51.936;4.788;2023-06-22T09:16:16;101723.81;;;23.94;67.60
47220;BME280;32961;51.936;4.788;2023-06-22T09:18:48;101716.16;;;23.96;68.90
47220;BME280;32961;51.936;4.788;2023-06-22T09:21:16;101712.31;;;24.04;68.59
47220;BME280;32961;51.936;4.788;2023-06-22T09:23:43;101719.13;;;24.01;68.98
47220;BME280;32961;51.936;4.788;2023-06-22T09:26:16;101719.56;;;24.12;67.80
47220;BME280;32961;51.936;4.788;2023-06-22T09:28:44;101721.47;;;24.18;64.75
47220;BME280;32961;51.936;4.788;2023-06-22T09:31:12;101720.19;;;24.27;62.76
47220;BME280;32961;51.936;4.788;2023-06-22T09:33:40;101719.13;;;24.28;62.60
47220;BME280;32961;51.936;4.788;2023-06-22T09:36:10;101715.28;;;24.23;60.82
47220;BME280;32961;51.936;4.788;2023-06-22T09:38:38;101715.06;;;24.24;60.26
47220;BME280;32961;51.936;4.788;2023-06-22T09:41:06;101710.78;;;24.22;60.30
47220;BME280;32961;51.936;4.788;2023-06-22T09:43:34;101711.63;;;24.29;61.08
47220;BME280;32961;51.936;4.788;2023-06-22T09:46:02;101710.16;;;24.33;60.60
47220;BME280;32961;51.936;4.788;2023-06-22T09:48:30;101703.50;;;24.41;60.68
47220;BME280;32961;51.936;4.788;2023-06-22T09:50:58;101702.44;;;24.48;59.71
47220;BME280;32961;51.936;4.788;2023-06-22T09:53:27;101693.06;;;24.43;59.88
47220;BME280;32961;51.936;4.788;2023-06-22T09:55:55;101690.06;;;24.44;60.32
47220;BME280;32961;51.936;4.788;2023-06-22T09:58:23;101684.50;;;24.44;58.74
47220;BME280;32961;51.936;4.788;2023-06-22T10:00:51;101683.84;;;24.42;59.83
47220;BME280;32961;51.936;4.788;2023-06-22T10:03:20;101691.97;;;24.50;59.67
47220;BME280;32961;51.936;4.788;2023-06-22T10:05:49;101698.13;;;24.59;59.33
47220;BME280;32961;51.936;4.788;2023-06-22T10:08:17;101706.50;;;24.52;59.80
47220;BME280;32961;51.936;4.788;2023-06-22T10:10:46;101702.84;;;24.59;59.04
47220;BME280;32961;51.936;4.788;2023-06-22T10:13:16;101703.91;;;24.58;59.34
47220;BME280;32961;51.936;4.788;2023-06-22T10:15:45;101707.94;;;24.62;59.11
47220;BME280;32961;51.936;4.788;2023-06-22T10:18:16;101704.34;;;24.55;59.71
47220;BME280;32961;51.936;4.788;2023-06-22T10:20:45;101705.41;;;24.60;60.36
47220;BME280;32961;51.936;4.788;2023-06-22T10:23:12;101701.34;;;24.63;60.52
47220;BME280;32961;51.936;4.788;2023-06-22T10:25:41;101696.00;;;24.61;59.45
47220;BME280;32961;51.936;4.788;2023-06-22T10:28:10;101705.63;;;24.59;59.96
47220;BME280;32961;51.936;4.788;2023-06-22T10:30:38;101708.41;;;24.65;60.58
47220;BME280;32961;51.936;4.788;2023-06-22T10:33:07;101712.25;;;24.71;61.07
47220;BME280;32961;51.936;4.788;2023-06-22T10:35:35;101708.81;;;24.62;60.53
47220;BME280;32961;51.936;4.788;2023-06-22T10:38:05;101705.63;;;24.59;60.67
47220;BME280;32961;51.936;4.788;2023-06-22T10:40:33;101706.50;;;24.66;61.23
47220;BME280;32961;51.936;4.788;2023-06-22T10:43:01;101697.06;;;24.54;61.66
47220;BME280;32961;51.936;4.788;2023-06-22T10:45:30;101703.25;;;24.56;63.36
47220;BME280;32961;51.936;4.788;2023-06-22T10:47:59;101705.63;;;24.52;64.50
47220;BME280;32961;51.936;4.788;2023-06-22T10:50:27;101703.25;;;24.56;65.42
47220;BME280;32961;51.936;4.788;2023-06-22T10:52:55;101713.09;;;24.58;65.80
47220;BME280;32961;51.936;4.788;2023-06-22T10:55:26;101715.03;;;24.58;65.96
47220;BME280;32961;51.936;4.788;2023-06-22T10:58:05;101714.59;;;24.54;65.68
47220;BME280;32961;51.936;4.788;2023-06-22T11:00:36;101710.13;;;24.53;66.77
47220;BME280;32961;51.936;4.788;2023-06-22T11:03:03;101712.25;;;24.51;66.63
47220;BME280;32961;51.936;4.788;2023-06-22T11:05:32;101708.63;;;24.50;66.48
47220;BME280;32961;51.936;4.788;2023-06-22T11:07:59;101705.84;;;24.50;66.86
47220;BME280;32961;51.936;4.788;2023-06-22T11:10:27;101711.81;;;24.47;66.51
47220;BME280;32961;51.936;4.788;2023-06-22T11:12:56;101703.50;;;24.41;66.60
47220;BME280;32961;51.936;4.788;2023-06-22T11:15:24;101702.69;;;24.40;66.94
47220;BME280;32961;51.936;4.788;2023-06-22T11:17:53;101699.03;;;24.40;67.07
47220;BME280;32961;51.936;4.788;2023-06-22T11:20:21;101702.44;;;24.35;67.82
47220;BME280;32961;51.936;4.788;2023-06-22T11:22:49;101706.94;;;24.36;67.74
47220;BME280;32961;51.936;4.788;2023-06-22T11:25:17;101697.75;;;24.35;67.41
47220;BME280;32961;51.936;4.788;2023-06-22T11:27:45;101699.88;;;24.33;67.09
47220;BME280;32961;51.936;4.788;2023-06-22T11:30:13;101696.91;;;24.35;66.76
47220;BME280;32961;51.936;4.788;2023-06-22T11:32:41;101695.41;;;24.32;66.57
47220;BME280;32961;51.936;4.788;2023-06-22T11:35:10;101678.56;;;24.21;66.74
47220;BME280;32961;51.936;4.788;2023-06-22T11:37:38;101682.19;;;24.21;65.61
47220;BME280;32961;51.936;4.788;2023-06-22T11:40:07;101672.56;;;24.24;66.37
47220;BME280;32961;51.936;4.788;2023-06-22T11:42:36;101669.16;;;24.22;66.32
47220;BME280;32961;51.936;4.788;2023-06-22T11:45:07;101656.34;;;24.27;66.55
47220;BME280;32961;51.936;4.788;2023-06-22T11:47:35;101660.59;;;24.30;66.43
47220;BME280;32961;51.936;4.788;2023-06-22T11:50:04;101653.53;;;24.34;66.80
47220;BME280;32961;51.936;4.788;2023-06-22T11:52:34;101653.31;;;24.42;66.70
47220;BME280;32961;51.936;4.788;2023-06-22T11:55:04;101644.75;;;24.44;65.76
47220;BME280;32961;51.936;4.788;2023-06-22T11:57:33;101634.09;;;24.41;66.00
47220;BME280;32961;51.936;4.788;2023-06-22T12:00:02;101634.50;;;24.44;65.91
47220;BME280;32961;51.936;4.788;2023-06-22T12:02:37;101635.56;;;24.50;65.38
47220;BME280;32961;51.936;4.788;2023-06-22T12:05:06;101633.44;;;24.45;66.03
47220;BME280;32961;51.936;4.788;2023-06-22T12:07:35;101623.81;;;24.41;66.29
47220;BME280;32961;51.936;4.788;2023-06-22T12:10:04;101622.53;;;24.50;66.54
47220;BME280;32961;51.936;4.788;2023-06-22T12:12:32;101623.34;;;24.51;66.61
47220;BME280;32961;51.936;4.788;2023-06-22T12:15:00;101625.94;;;24.52;66.76
47220;BME280;32961;51.936;4.788;2023-06-22T12:17:30;101632.56;;;24.51;66.63
47220;BME280;32961;51.936;4.788;2023-06-22T12:19:58;101636.19;;;24.59;67.44
47220;BME280;32961;51.936;4.788;2023-06-22T12:22:26;101630.19;;;24.55;69.01
47220;BME280;32961;51.936;4.788;2023-06-22T12:24:55;101634.03;;;24.54;69.90
47220;BME280;32961;51.936;4.788;2023-06-22T12:27:23;101630.00;;;24.43;72.76
47220;BME280;32961;51.936;4.788;2023-06-22T12:29:51;101626.59;;;24.41;72.95
47220;BME280;32961;51.936;4.788;2023-06-22T12:32:18;101630.06;;;24.37;73.76
47220;BME280;32961;51.936;4.788;2023-06-22T12:34:46;101623.19;;;24.39;74.63
47220;BME280;32961;51.936;4.788;2023-06-22T12:37:14;101620.00;;;24.29;74.55
47220;BME280;32961;51.936;4.788;2023-06-22T12:39:43;101622.41;;;24.05;75.77
47220;BME280;32961;51.936;4.788;2023-06-22T12:42:12;101620.25;;;24.21;75.44
47220;BME280;32961;51.936;4.788;2023-06-22T12:44:40;101620.19;;;24.34;76.44
47220;BME280;32961;51.936;4.788;2023-06-22T12:47:08;101625.13;;;24.32;78.98
47220;BME280;32961;51.936;4.788;2023-06-22T12:49:36;101621.91;;;24.35;78.65
47220;BME280;32961;51.936;4.788;2023-06-22T12:52:08;101618.91;;;24.43;77.93
47220;BME280;32961;51.936;4.788;2023-06-22T12:54:37;101614.88;;;24.39;78.45
47220;BME280;32961;51.936;4.788;2023-06-22T12:57:17;101611.22;;;24.39;78.51
47220;BME280;32961;51.936;4.788;2023-06-22T12:59:46;101609.50;;;24.44;77.53
47220;BME280;32961;51.936;4.788;2023-06-22T13:02:13;101617.19;;;24.49;76.56
47220;BME280;32961;51.936;4.788;2023-06-22T13:04:41;101625.09;;;24.39;75.79
47220;BME280;32961;51.936;4.788;2023-06-22T13:07:10;101622.34;;;24.39;75.12
47220;BME280;32961;51.936;4.788;2023-06-22T13:09:40;101620.84;;;24.43;74.90
47220;BME280;32961;51.936;4.788;2023-06-22T13:12:08;101627.84;;;24.52;74.63